Bryansk Airport


Codes: UUBP/BZK
Name: Bryansk Airport
City: Bryansk
Country: Russia
Elevation: 663 ft.
Website:

Photos at Bryansk Airport


   Photos courtesy of SpottingLog. You can add your own sightings and photos by signing up for a free trial today.



No photos found.

Weather at Bryansk Airport


Time (UTC)DescriptionTempratureWindCloud coverageVisibilityPressureHumidity
25-Jun-2024 12:00Light Rain21°C11 mph, NE57%10000m1015hPa50%
25-Jun-2024 15:00Scattered Clouds21°C4 mph, NE40%10000m1015hPa53%
25-Jun-2024 18:00Scattered Clouds17°C2 mph, N46%10000m1016hPa66%
25-Jun-2024 21:00Overcast Clouds14°C4 mph, NW92%10000m1017hPa77%
26-Jun-2024 00:00Broken Clouds13°C7 mph, NW84%10000m1017hPa83%
26-Jun-2024 03:00Overcast Clouds13°C7 mph, NW100%10000m1017hPa85%
26-Jun-2024 06:00Overcast Clouds15°C9 mph, NW95%10000m1017hPa82%
26-Jun-2024 09:00Overcast Clouds17°C9 mph, NW88%10000m1016hPa79%
26-Jun-2024 12:00Light Rain21°C9 mph, NW84%10000m1015hPa73%
26-Jun-2024 15:00Light Rain21°C11 mph, NW25%10000m1015hPa73%
26-Jun-2024 18:00Light Rain17°C9 mph, NW42%10000m1015hPa87%
26-Jun-2024 21:00Light Rain16°C7 mph, NW75%10000m1015hPa92%
27-Jun-2024 00:00Light Rain15°C7 mph, NW70%10000m1015hPa92%
27-Jun-2024 03:00Broken Clouds16°C4 mph, NW73%10000m1015hPa92%
27-Jun-2024 06:00Scattered Clouds21°C7 mph, N42%10000m1015hPa77%
27-Jun-2024 09:00Light Rain24°C9 mph, N6%10000m1015hPa55%
27-Jun-2024 12:00Clear Sky26°C9 mph, NE9%10000m1015hPa49%
27-Jun-2024 15:00Broken Clouds24°C4 mph, NE61%10000m1015hPa69%
27-Jun-2024 18:00Scattered Clouds19°C2 mph, S45%10000m1016hPa77%
27-Jun-2024 21:00Clear Sky17°C4 mph, NW6%10000m1017hPa83%
28-Jun-2024 00:00Clear Sky15°C4 mph, N3%10000m1017hPa91%
28-Jun-2024 03:00Clear Sky16°C4 mph, NE0%10000m1017hPa87%
28-Jun-2024 06:00Clear Sky21°C7 mph, NE0%10000m1018hPa63%
28-Jun-2024 09:00Clear Sky24°C7 mph, NE6%10000m1018hPa48%
28-Jun-2024 12:00Clear Sky25°C4 mph, NE3%10000m1017hPa45%
28-Jun-2024 15:00Clear Sky26°C4 mph, NE0%10000m1017hPa56%
28-Jun-2024 18:00Clear Sky19°C4 mph, E2%10000m1018hPa82%
28-Jun-2024 21:00Clear Sky17°C4 mph, S2%10000m1019hPa88%
29-Jun-2024 00:00Clear Sky16°C4 mph, SW1%10000m1019hPa90%
29-Jun-2024 03:00Clear Sky17°C4 mph, SW2%10000m1020hPa88%
29-Jun-2024 06:00Clear Sky22°C4 mph, W5%10000m1020hPa71%
29-Jun-2024 09:00Clear Sky25°C4 mph, W2%10000m1019hPa60%
29-Jun-2024 12:00Clear Sky27°C7 mph, W1%10000m1018hPa55%
29-Jun-2024 15:00Clear Sky26°C7 mph, W1%10000m1017hPa67%
29-Jun-2024 18:00Clear Sky21°C4 mph, W0%10000m1017hPa81%
29-Jun-2024 21:00Clear Sky19°C4 mph, NW0%10000m1017hPa86%
30-Jun-2024 00:00Clear Sky18°C2 mph, W0%10000m1017hPa88%
30-Jun-2024 03:00Clear Sky19°C4 mph, SW1%10000m1018hPa87%
30-Jun-2024 06:00Clear Sky24°C4 mph, W0%10000m1017hPa71%
30-Jun-2024 09:00Clear Sky27°C4 mph, W2%10000m1016hPa59%